Skip Navigation Links
NOAA logo - Click to go to the NOAA homepage
NOAA's National Weather Service
Alaska Aviation Weather Unit
  NWS logo - Click to go to the NWS homepage
Left Navbar Graphic     10 AKDT = 18 GMT

   
NOAA is celebrating 200 years of science, service, and stewardship. Visit the NOAA 200th celebration Web site to learn more.
USA.gov is the U.S. Government's official Web portal to all Federal, state and local government Web resources and services.
Facebook
NWS on Facebook

Important Change Regarding the AAWU Web Presence

 

Over the last several months, the AAWU has been working to navigate its webpages to a nationally supported server. Security, as well as other needs, have necessitated the change.  We have been given an extension for the site changeover while we diligently work at addressing feedback received. As of July 14, 2017, aawu.arh.noaa.gov will be discontinued. The new AAWU web address is weather.gov/aawu. It is now live and will run in-parallel with the old site until it is discontinued on July 14, 2017. Please continue to send any feedback or questions regarding the new webpages to nws.ar.aawu.webauthors@noaa.gov.  Thank you for your patience during this time of transition.
AAWU Home :: Display TAF Add Bookmark
TAF CYEV 101841Z 1019/1107 02005KT P6SM SCT100 BKN220 TEMPO 1021/1103
     P6SM -SHRA
    RMK NXT FCST BY 110100Z=

METAR CYEV 261200Z 30005KT 15SM BKN012 BKN020 OVC072 02/01 A2998 RMK ST5SC1AC2 SLP159= METAR CYEV 261300Z 30005KT 15SM BKN012 OVC071 01/01 A2999 RMK ST5AC3 SLP162= SPECI CYEV 261340Z 32006KT 15SM BKN006 OVC074 01/01 A3000 RMK ST5AC3 SLP165= METAR CYEV 261400Z 32005KT 15SM BKN007 OVC070 01/01 A3000 RMK ST5AC3 SLP166= SPECI CYEV 261436Z 31003KT 15SM -SHSN BKN008 BKN030 OVC070 01/00 A3002 RMK ST5SC2AC1 SLP171= METAR CYEV 261500Z 33003KT 15SM -SHSN SCT008 BKN030 OVC070 01/00 A3002 RMK ST4SC3AC1 SLP173= SPECI CYEV 261542Z 31003KT 15SM -RA SCT004 BKN035 OVC070 01/00 A3003 RMK SF3SC3AC2 SLP177= METAR CYEV 261600Z 31003KT 15SM -RA SCT004 BKN035 OVC070 01/00 A3003 RMK SF3SC2AC3 SLP178= SPECI CYEV 261639Z CCA 31002KT 15SM FEW004 BKN032 OVC070 01/00 A3004 RMK ST2SC3AC3 CIG LWR S-W SLP178= METAR CYEV 261700Z 00000KT 15SM FEW010 BKN032 OVC070 01/01 A3004 RMK ST2SC3AC3 CIG LWR S-W SLP181= SPECI CYEV 261724Z 00000KT 6SM -RASN SCT011 BKN030 OVC070 01/01 A3005 RMK ST3SC3AC2 SLP183= SPECI CYEV 261750Z VRB02KT 10SM -RASN BKN005 OVC020 02/01 A3006 RMK SF5SC3 SLP185= METAR CYEV 261800Z 30003KT 250V330 8SM -RASN BKN005 OVC020 02/01 A3006 RMK ST6SC2 SLP186=
 Alaska TAF Map

NOAA's National Weather Service
Alaska Aviation Weather Unit
6930 Sand Lake Road
Anchorage, AK 99502-1845
Disclaimer
Credits
Glossary
Privacy Policy
About Us
Career Opportunities
Contact AAWU Internet Services Site last modified: April, 17th 2012